sensor_id;sensor_type;location;lat;lon;timestamp;P1;durP1;ratioP1;P2;durP2;ratioP2
8747;SDS011;4410;42.120;24.738;2022-07-22T00:02:22;0.10;;;0.10;;
8747;SDS011;4410;42.120;24.738;2022-07-22T00:04:51;0.10;;;0.10;;
8747;SDS011;4410;42.120;24.738;2022-07-22T00:07:18;0.03;;;0.03;;
8747;SDS011;4410;42.120;24.738;2022-07-22T00:09:47;0.10;;;0.10;;
8747;SDS011;4410;42.120;24.738;2022-07-22T00:12:14;0.30;;;0.30;;
8747;SDS011;4410;42.120;24.738;2022-07-22T00:14:43;0.20;;;0.20;;
8747;SDS011;4410;42.120;24.738;2022-07-22T00:17:09;0.20;;;0.20;;
8747;SDS011;4410;42.120;24.738;2022-07-22T00:19:36;0.23;;;0.23;;
8747;SDS011;4410;42.120;24.738;2022-07-22T00:22:09;0.17;;;0.17;;
8747;SDS011;4410;42.120;24.738;2022-07-22T00:24:40;0.20;;;0.20;;
8747;SDS011;4410;42.120;24.738;2022-07-22T00:27:10;0.20;;;0.20;;
8747;SDS011;4410;42.120;24.738;2022-07-22T00:29:40;0.57;;;0.57;;
8747;SDS011;4410;42.120;24.738;2022-07-22T00:35:30;0.20;;;0.20;;
8747;SDS011;4410;42.120;24.738;2022-07-22T00:41:19;0.47;;;0.47;;
8747;SDS011;4410;42.120;24.738;2022-07-22T00:43:57;0.20;;;0.20;;
8747;SDS011;4410;42.120;24.738;2022-07-22T00:46:26;0.33;;;0.33;;
8747;SDS011;4410;42.120;24.738;2022-07-22T00:48:54;0.10;;;0.10;;
8747;SDS011;4410;42.120;24.738;2022-07-22T00:51:28;0.50;;;0.50;;
8747;SDS011;4410;42.120;24.738;2022-07-22T00:53:56;0.40;;;0.40;;
8747;SDS011;4410;42.120;24.738;2022-07-22T00:56:28;0.10;;;0.10;;
8747;SDS011;4410;42.120;24.738;2022-07-22T00:58:55;0.10;;;0.10;;
8747;SDS011;4410;42.120;24.738;2022-07-22T01:01:25;0.10;;;0.10;;
8747;SDS011;4410;42.120;24.738;2022-07-22T01:03:57;0.07;;;0.07;;
8747;SDS011;4410;42.120;24.738;2022-07-22T01:06:28;0.13;;;0.13;;
8747;SDS011;4410;42.120;24.738;2022-07-22T01:08:58;0.20;;;0.20;;
8747;SDS011;4410;42.120;24.738;2022-07-22T01:11:28;0.30;;;0.30;;
8747;SDS011;4410;42.120;24.738;2022-07-22T01:13:58;0.20;;;0.20;;
8747;SDS011;4410;42.120;24.738;2022-07-22T01:16:28;0.30;;;0.30;;
8747;SDS011;4410;42.120;24.738;2022-07-22T01:18:59;0.20;;;0.20;;
8747;SDS011;4410;42.120;24.738;2022-07-22T01:21:33;0.10;;;0.10;;
8747;SDS011;4410;42.120;24.738;2022-07-22T01:24:04;0.20;;;0.20;;
8747;SDS011;4410;42.120;24.738;2022-07-22T01:26:32;0.13;;;0.13;;
8747;SDS011;4410;42.120;24.738;2022-07-22T01:29:00;0.10;;;0.10;;
8747;SDS011;4410;42.120;24.738;2022-07-22T01:31:31;0.10;;;0.10;;
8747;SDS011;4410;42.120;24.738;2022-07-22T01:34:01;0.13;;;0.13;;
8747;SDS011;4410;42.120;24.738;2022-07-22T01:36:33;0.73;;;0.73;;
8747;SDS011;4410;42.120;24.738;2022-07-22T01:39:01;0.20;;;0.20;;
8747;SDS011;4410;42.120;24.738;2022-07-22T01:41:31;0.30;;;0.30;;
8747;SDS011;4410;42.120;24.738;2022-07-22T01:44:01;0.10;;;0.10;;
8747;SDS011;4410;42.120;24.738;2022-07-22T01:46:37;0.70;;;0.70;;
8747;SDS011;4410;42.120;24.738;2022-07-22T01:52:19;0.13;;;0.13;;
8747;SDS011;4410;42.120;24.738;2022-07-22T01:54:47;0.10;;;0.10;;
8747;SDS011;4410;42.120;24.738;2022-07-22T01:57:17;0.10;;;0.10;;
8747;SDS011;4410;42.120;24.738;2022-07-22T01:59:46;0.00;;;0.00;;
8747;SDS011;4410;42.120;24.738;2022-07-22T02:02:16;0.10;;;0.10;;
8747;SDS011;4410;42.120;24.738;2022-07-22T02:04:45;0.03;;;0.03;;
8747;SDS011;4410;42.120;24.738;2022-07-22T02:07:12;0.93;;;0.93;;
8747;SDS011;4410;42.120;24.738;2022-07-22T02:09:43;0.10;;;0.10;;
8747;SDS011;4410;42.120;24.738;2022-07-22T02:12:12;0.20;;;0.20;;
8747;SDS011;4410;42.120;24.738;2022-07-22T02:14:39;0.77;;;0.70;;
8747;SDS011;4410;42.120;24.738;2022-07-22T02:19:41;0.00;;;0.00;;
8747;SDS011;4410;42.120;24.738;2022-07-22T02:22:10;0.40;;;0.40;;
8747;SDS011;4410;42.120;24.738;2022-07-22T02:24:37;0.00;;;0.00;;
8747;SDS011;4410;42.120;24.738;2022-07-22T02:27:05;0.10;;;0.10;;
8747;SDS011;4410;42.120;24.738;2022-07-22T02:29:33;0.00;;;0.00;;
8747;SDS011;4410;42.120;24.738;2022-07-22T02:32:00;0.00;;;0.00;;
8747;SDS011;4410;42.120;24.738;2022-07-22T02:34:27;0.00;;;0.00;;
8747;SDS011;4410;42.120;24.738;2022-07-22T02:44:01;0.00;;;0.00;;
8747;SDS011;4410;42.120;24.738;2022-07-22T02:49:55;0.00;;;0.00;;
8747;SDS011;4410;42.120;24.738;2022-07-22T02:52:21;0.00;;;0.00;;
8747;SDS011;4410;42.120;24.738;2022-07-22T02:54:49;0.00;;;0.00;;
8747;SDS011;4410;42.120;24.738;2022-07-22T02:57:16;0.17;;;0.10;;
8747;SDS011;4410;42.120;24.738;2022-07-22T02:59:46;0.67;;;0.67;;
8747;SDS011;4410;42.120;24.738;2022-07-22T03:02:19;0.00;;;0.00;;
8747;SDS011;4410;42.120;24.738;2022-07-22T03:04:49;0.00;;;0.00;;
8747;SDS011;4410;42.120;24.738;2022-07-22T03:07:19;0.10;;;0.10;;
8747;SDS011;4410;42.120;24.738;2022-07-22T03:09:46;3.20;;;1.53;;
8747;SDS011;4410;42.120;24.738;2022-07-22T03:12:16;0.27;;;0.27;;
8747;SDS011;4410;42.120;24.738;2022-07-22T03:14:46;1.53;;;1.53;;
8747;SDS011;4410;42.120;24.738;2022-07-22T03:17:20;0.00;;;0.00;;
8747;SDS011;4410;42.120;24.738;2022-07-22T03:23:24;0.00;;;0.00;;
8747;SDS011;4410;42.120;24.738;2022-07-22T03:25:56;0.00;;;0.00;;
8747;SDS011;4410;42.120;24.738;2022-07-22T03:28:24;1.07;;;0.97;;
8747;SDS011;4410;42.120;24.738;2022-07-22T03:34:32;0.23;;;0.23;;
8747;SDS011;4410;42.120;24.738;2022-07-22T03:37:01;1.03;;;1.03;;
8747;SDS011;4410;42.120;24.738;2022-07-22T03:42:38;0.00;;;0.00;;
8747;SDS011;4410;42.120;24.738;2022-07-22T03:45:09;0.00;;;0.00;;
8747;SDS011;4410;42.120;24.738;2022-07-22T03:47:41;0.43;;;0.43;;
8747;SDS011;4410;42.120;24.738;2022-07-22T03:50:13;0.10;;;0.10;;
8747;SDS011;4410;42.120;24.738;2022-07-22T03:52:40;1.47;;;1.47;;
8747;SDS011;4410;42.120;24.738;2022-07-22T03:58:08;0.07;;;0.07;;
8747;SDS011;4410;42.120;24.738;2022-07-22T04:04:01;0.30;;;0.30;;
8747;SDS011;4410;42.120;24.738;2022-07-22T04:09:52;1.50;;;1.50;;
8747;SDS011;4410;42.120;24.738;2022-07-22T04:12:30;2.00;;;0.87;;
8747;SDS011;4410;42.120;24.738;2022-07-22T04:14:58;0.60;;;0.60;;
8747;SDS011;4410;42.120;24.738;2022-07-22T04:17:44;7.23;;;5.53;;
8747;SDS011;4410;42.120;24.738;2022-07-22T04:20:12;3.57;;;2.77;;
8747;SDS011;4410;42.120;24.738;2022-07-22T04:22:44;8.70;;;3.97;;
8747;SDS011;4410;42.120;24.738;2022-07-22T04:25:12;4.03;;;2.80;;
8747;SDS011;4410;42.120;24.738;2022-07-22T04:27:40;2.50;;;2.40;;
8747;SDS011;4410;42.120;24.738;2022-07-22T04:30:09;7.60;;;5.30;;
8747;SDS011;4410;42.120;24.738;2022-07-22T04:32:39;0.93;;;0.93;;
8747;SDS011;4410;42.120;24.738;2022-07-22T04:35:06;2.90;;;2.67;;
8747;SDS011;4410;42.120;24.738;2022-07-22T04:37:35;5.20;;;3.23;;
8747;SDS011;4410;42.120;24.738;2022-07-22T04:40:02;5.10;;;4.03;;
8747;SDS011;4410;42.120;24.738;2022-07-22T04:42:31;3.83;;;3.20;;
8747;SDS011;4410;42.120;24.738;2022-07-22T04:44:58;6.00;;;4.37;;
8747;SDS011;4410;42.120;24.738;2022-07-22T04:47:25;6.87;;;2.73;;
8747;SDS011;4410;42.120;24.738;2022-07-22T04:49:52;1.60;;;1.30;;
8747;SDS011;4410;42.120;24.738;2022-07-22T04:52:22;6.10;;;3.20;;
8747;SDS011;4410;42.120;24.738;2022-07-22T04:54:52;7.50;;;3.87;;
8747;SDS011;4410;42.120;24.738;2022-07-22T04:57:19;6.67;;;6.07;;
8747;SDS011;4410;42.120;24.738;2022-07-22T04:59:48;7.97;;;3.97;;
8747;SDS011;4410;42.120;24.738;2022-07-22T05:02:15;11.57;;;7.10;;
8747;SDS011;4410;42.120;24.738;2022-07-22T05:04:42;4.47;;;3.97;;
8747;SDS011;4410;42.120;24.738;2022-07-22T05:07:09;6.80;;;5.57;;
8747;SDS011;4410;42.120;24.738;2022-07-22T05:09:38;9.60;;;3.03;;
8747;SDS011;4410;42.120;24.738;2022-07-22T05:12:05;6.50;;;5.10;;
8747;SDS011;4410;42.120;24.738;2022-07-22T05:14:32;2.77;;;2.57;;
8747;SDS011;4410;42.120;24.738;2022-07-22T05:17:03;4.37;;;4.03;;
8747;SDS011;4410;42.120;24.738;2022-07-22T05:19:30;4.90;;;4.43;;
8747;SDS011;4410;42.120;24.738;2022-07-22T05:21:59;0.10;;;0.10;;
8747;SDS011;4410;42.120;24.738;2022-07-22T05:24:31;3.50;;;3.20;;
8747;SDS011;4410;42.120;24.738;2022-07-22T05:27:00;6.80;;;5.50;;
8747;SDS011;4410;42.120;24.738;2022-07-22T05:32:50;0.90;;;0.90;;
8747;SDS011;4410;42.120;24.738;2022-07-22T05:35:17;5.37;;;4.87;;
8747;SDS011;4410;42.120;24.738;2022-07-22T05:44:19;8.27;;;5.20;;
8747;SDS011;4410;42.120;24.738;2022-07-22T05:46:49;6.80;;;4.40;;
8747;SDS011;4410;42.120;24.738;2022-07-22T05:49:20;3.03;;;2.83;;
8747;SDS011;4410;42.120;24.738;2022-07-22T05:51:52;4.37;;;3.97;;
8747;SDS011;4410;42.120;24.738;2022-07-22T05:54:25;1.77;;;1.47;;
8747;SDS011;4410;42.120;24.738;2022-07-22T05:56:55;1.97;;;1.87;;
8747;SDS011;4410;42.120;24.738;2022-07-22T05:59:23;1.88;;;1.75;;
8747;SDS011;4410;42.120;24.738;2022-07-22T06:01:54;4.93;;;4.43;;
8747;SDS011;4410;42.120;24.738;2022-07-22T06:04:31;7.00;;;5.23;;
8747;SDS011;4410;42.120;24.738;2022-07-22T06:07:02;2.77;;;2.57;;
8747;SDS011;4410;42.120;24.738;2022-07-22T06:09:34;4.73;;;4.33;;
8747;SDS011;4410;42.120;24.738;2022-07-22T06:12:01;8.80;;;5.80;;
8747;SDS011;4410;42.120;24.738;2022-07-22T06:14:28;5.80;;;4.22;;
8747;SDS011;4410;42.120;24.738;2022-07-22T06:16:55;8.20;;;4.13;;
8747;SDS011;4410;42.120;24.738;2022-07-22T06:19:23;9.10;;;5.20;;
8747;SDS011;4410;42.120;24.738;2022-07-22T06:21:57;4.43;;;4.13;;
8747;SDS011;4410;42.120;24.738;2022-07-22T06:24:28;10.48;;;6.63;;
8747;SDS011;4410;42.120;24.738;2022-07-22T06:27:11;5.97;;;4.50;;
8747;SDS011;4410;42.120;24.738;2022-07-22T06:29:43;1.60;;;1.50;;
8747;SDS011;4410;42.120;24.738;2022-07-22T06:32:10;6.00;;;5.47;;
8747;SDS011;4410;42.120;24.738;2022-07-22T06:34:37;7.68;;;5.30;;
8747;SDS011;4410;42.120;24.738;2022-07-22T06:37:05;8.32;;;4.75;;
8747;SDS011;4410;42.120;24.738;2022-07-22T06:39:36;4.63;;;4.18;;
8747;SDS011;4410;42.120;24.738;2022-07-22T06:42:06;5.85;;;4.80;;
8747;SDS011;4410;42.120;24.738;2022-07-22T06:44:41;4.40;;;4.10;;
8747;SDS011;4410;42.120;24.738;2022-07-22T06:47:08;4.90;;;4.10;;
8747;SDS011;4410;42.120;24.738;2022-07-22T06:49:36;3.78;;;3.47;;
8747;SDS011;4410;42.120;24.738;2022-07-22T06:52:04;4.00;;;3.70;;
8747;SDS011;4410;42.120;24.738;2022-07-22T06:54:31;5.13;;;4.05;;
8747;SDS011;4410;42.120;24.738;2022-07-22T06:56:59;4.85;;;3.67;;
8747;SDS011;4410;42.120;24.738;2022-07-22T06:59:26;8.23;;;4.05;;
8747;SDS011;4410;42.120;24.738;2022-07-22T07:01:53;3.03;;;2.83;;
8747;SDS011;4410;42.120;24.738;2022-07-22T07:04:20;4.65;;;4.22;;
8747;SDS011;4410;42.120;24.738;2022-07-22T07:06:47;4.47;;;2.53;;
8747;SDS011;4410;42.120;24.738;2022-07-22T07:09:16;3.80;;;3.50;;
8747;SDS011;4410;42.120;24.738;2022-07-22T07:11:43;4.30;;;3.85;;
8747;SDS011;4410;42.120;24.738;2022-07-22T07:14:10;2.05;;;1.77;;
8747;SDS011;4410;42.120;24.738;2022-07-22T07:16:37;5.43;;;3.70;;
8747;SDS011;4410;42.120;24.738;2022-07-22T07:19:04;2.70;;;2.53;;
8747;SDS011;4410;42.120;24.738;2022-07-22T07:21:41;1.27;;;1.27;;
8747;SDS011;4410;42.120;24.738;2022-07-22T07:24:08;5.97;;;4.60;;
8747;SDS011;4410;42.120;24.738;2022-07-22T07:26:43;3.65;;;3.10;;
8747;SDS011;4410;42.120;24.738;2022-07-22T07:29:26;0.50;;;0.50;;
8747;SDS011;4410;42.120;24.738;2022-07-22T07:31:53;7.28;;;3.67;;
8747;SDS011;4410;42.120;24.738;2022-07-22T07:34:41;3.10;;;2.78;;
8747;SDS011;4410;42.120;24.738;2022-07-22T07:37:29;5.55;;;4.32;;
8747;SDS011;4410;42.120;24.738;2022-07-22T07:39:58;3.63;;;2.35;;
8747;SDS011;4410;42.120;24.738;2022-07-22T07:42:38;3.90;;;2.38;;
8747;SDS011;4410;42.120;24.738;2022-07-22T07:45:06;4.53;;;4.10;;
8747;SDS011;4410;42.120;24.738;2022-07-22T07:47:41;3.17;;;2.95;;
8747;SDS011;4410;42.120;24.738;2022-07-22T07:50:13;3.83;;;3.33;;
8747;SDS011;4410;42.120;24.738;2022-07-22T07:52:42;1.02;;;0.98;;
8747;SDS011;4410;42.120;24.738;2022-07-22T07:55:13;1.85;;;1.75;;
8747;SDS011;4410;42.120;24.738;2022-07-22T07:57:59;4.45;;;3.63;;
8747;SDS011;4410;42.120;24.738;2022-07-22T08:00:32;2.45;;;1.98;;
8747;SDS011;4410;42.120;24.738;2022-07-22T08:03:07;3.85;;;3.45;;
8747;SDS011;4410;42.120;24.738;2022-07-22T08:05:48;4.10;;;3.38;;
8747;SDS011;4410;42.120;24.738;2022-07-22T08:08:28;2.67;;;2.03;;
8747;SDS011;4410;42.120;24.738;2022-07-22T08:17:31;3.40;;;2.97;;
8747;SDS011;4410;42.120;24.738;2022-07-22T08:20:18;22.23;;;2.95;;
8747;SDS011;4410;42.120;24.738;2022-07-22T08:22:48;1.85;;;1.73;;
8747;SDS011;4410;42.120;24.738;2022-07-22T08:25:15;3.47;;;3.05;;
8747;SDS011;4410;42.120;24.738;2022-07-22T08:27:45;2.80;;;2.60;;
8747;SDS011;4410;42.120;24.738;2022-07-22T08:39:36;2.80;;;2.70;;
8747;SDS011;4410;42.120;24.738;2022-07-22T08:42:03;5.22;;;3.38;;
8747;SDS011;4410;42.120;24.738;2022-07-22T08:44:33;2.28;;;2.08;;
8747;SDS011;4410;42.120;24.738;2022-07-22T08:50:11;4.60;;;1.42;;
8747;SDS011;4410;42.120;24.738;2022-07-22T08:52:40;3.95;;;3.28;;
8747;SDS011;4410;42.120;24.738;2022-07-22T08:55:17;4.63;;;4.25;;
8747;SDS011;4410;42.120;24.738;2022-07-22T09:04:23;1.80;;;1.70;;
8747;SDS011;4410;42.120;24.738;2022-07-22T09:13:55;1.63;;;1.52;;
8747;SDS011;4410;42.120;24.738;2022-07-22T09:20:03;2.05;;;1.50;;
8747;SDS011;4410;42.120;24.738;2022-07-22T09:23:10;1.65;;;1.55;;
8747;SDS011;4410;42.120;24.738;2022-07-22T09:25:48;1.10;;;1.10;;
8747;SDS011;4410;42.120;24.738;2022-07-22T09:28:24;1.63;;;1.55;;
8747;SDS011;4410;42.120;24.738;2022-07-22T09:33:50;3.25;;;0.65;;
8747;SDS011;4410;42.120;24.738;2022-07-22T09:39:27;3.35;;;3.05;;
8747;SDS011;4410;42.120;24.738;2022-07-22T09:41:58;1.92;;;1.83;;
8747;SDS011;4410;42.120;24.738;2022-07-22T09:44:25;1.80;;;1.70;;
8747;SDS011;4410;42.120;24.738;2022-07-22T09:46:56;1.83;;;1.73;;
8747;SDS011;4410;42.120;24.738;2022-07-22T09:52:53;10.63;;;3.17;;
8747;SDS011;4410;42.120;24.738;2022-07-22T09:55:25;2.67;;;2.58;;
8747;SDS011;4410;42.120;24.738;2022-07-22T09:57:54;4.18;;;3.40;;
8747;SDS011;4410;42.120;24.738;2022-07-22T10:00:24;1.13;;;1.13;;
8747;SDS011;4410;42.120;24.738;2022-07-22T10:02:55;2.30;;;2.20;;
8747;SDS011;4410;42.120;24.738;2022-07-22T10:11:10;4.15;;;2.88;;
8747;SDS011;4410;42.120;24.738;2022-07-22T10:13:56;3.15;;;2.88;;
8747;SDS011;4410;42.120;24.738;2022-07-22T10:16:24;2.88;;;2.53;;
8747;SDS011;4410;42.120;24.738;2022-07-22T10:18:57;0.50;;;0.50;;
8747;SDS011;4410;42.120;24.738;2022-07-22T10:21:30;3.92;;;1.85;;
8747;SDS011;4410;42.120;24.738;2022-07-22T10:24:16;1.35;;;1.33;;
8747;SDS011;4410;42.120;24.738;2022-07-22T10:36:07;4.45;;;3.92;;
8747;SDS011;4410;42.120;24.738;2022-07-22T10:39:01;2.53;;;2.33;;
8747;SDS011;4410;42.120;24.738;2022-07-22T10:55:27;1.95;;;1.85;;
8747;SDS011;4410;42.120;24.738;2022-07-22T10:57:54;4.00;;;1.83;;
8747;SDS011;4410;42.120;24.738;2022-07-22T11:00:28;1.95;;;1.85;;
8747;SDS011;4410;42.120;24.738;2022-07-22T11:02:55;2.35;;;2.10;;
8747;SDS011;4410;42.120;24.738;2022-07-22T11:05:27;1.65;;;1.58;;
8747;SDS011;4410;42.120;24.738;2022-07-22T11:20:42;3.20;;;2.90;;
8747;SDS011;4410;42.120;24.738;2022-07-22T11:25:59;2.50;;;2.40;;
8747;SDS011;4410;42.120;24.738;2022-07-22T11:28:26;1.55;;;1.17;;
8747;SDS011;4410;42.120;24.738;2022-07-22T11:31:04;1.40;;;1.40;;
8747;SDS011;4410;42.120;24.738;2022-07-22T11:33:32;3.13;;;2.92;;
8747;SDS011;4410;42.120;24.738;2022-07-22T11:36:04;1.38;;;1.27;;
8747;SDS011;4410;42.120;24.738;2022-07-22T11:38:46;2.05;;;1.05;;
8747;SDS011;4410;42.120;24.738;2022-07-22T11:51:15;2.15;;;1.25;;
8747;SDS011;4410;42.120;24.738;2022-07-22T11:53:43;3.42;;;3.22;;
8747;SDS011;4410;42.120;24.738;2022-07-22T11:59:13;0.93;;;0.93;;
8747;SDS011;4410;42.120;24.738;2022-07-22T12:01:44;2.20;;;2.10;;
8747;SDS011;4410;42.120;24.738;2022-07-22T12:04:15;3.30;;;2.22;;
8747;SDS011;4410;42.120;24.738;2022-07-22T12:06:46;1.60;;;1.50;;
8747;SDS011;4410;42.120;24.738;2022-07-22T12:09:16;1.30;;;1.30;;
8747;SDS011;4410;42.120;24.738;2022-07-22T12:11:48;2.92;;;2.58;;
8747;SDS011;4410;42.120;24.738;2022-07-22T12:14:19;7.80;;;1.70;;
8747;SDS011;4410;42.120;24.738;2022-07-22T12:16:54;2.33;;;1.30;;
8747;SDS011;4410;42.120;24.738;2022-07-22T12:19:34;2.75;;;1.73;;
8747;SDS011;4410;42.120;24.738;2022-07-22T12:22:07;0.32;;;0.32;;
8747;SDS011;4410;42.120;24.738;2022-07-22T12:24:38;2.25;;;1.45;;
8747;SDS011;4410;42.120;24.738;2022-07-22T12:27:07;0.10;;;0.10;;
8747;SDS011;4410;42.120;24.738;2022-07-22T12:29:46;0.98;;;0.95;;
8747;SDS011;4410;42.120;24.738;2022-07-22T12:35:39;0.95;;;0.93;;
8747;SDS011;4410;42.120;24.738;2022-07-22T12:41:27;0.20;;;0.20;;
8747;SDS011;4410;42.120;24.738;2022-07-22T12:46:51;2.13;;;1.38;;
8747;SDS011;4410;42.120;24.738;2022-07-22T12:49:24;1.63;;;1.52;;
8747;SDS011;4410;42.120;24.738;2022-07-22T12:55:28;1.33;;;1.25;;
8747;SDS011;4410;42.120;24.738;2022-07-22T13:01:26;1.77;;;1.65;;
8747;SDS011;4410;42.120;24.738;2022-07-22T13:04:05;1.55;;;1.48;;
8747;SDS011;4410;42.120;24.738;2022-07-22T13:09:29;1.67;;;1.58;;
8747;SDS011;4410;42.120;24.738;2022-07-22T13:12:00;1.33;;;1.23;;
8747;SDS011;4410;42.120;24.738;2022-07-22T13:14:29;0.00;;;0.00;;
8747;SDS011;4410;42.120;24.738;2022-07-22T13:16:59;1.10;;;1.05;;
8747;SDS011;4410;42.120;24.738;2022-07-22T13:19:40;3.85;;;0.75;;
8747;SDS011;4410;42.120;24.738;2022-07-22T13:22:08;0.75;;;0.75;;
8747;SDS011;4410;42.120;24.738;2022-07-22T13:24:36;0.82;;;0.82;;
8747;SDS011;4410;42.120;24.738;2022-07-22T13:30:08;2.10;;;1.83;;
8747;SDS011;4410;42.120;24.738;2022-07-22T13:32:39;0.90;;;0.90;;
8747;SDS011;4410;42.120;24.738;2022-07-22T13:35:23;1.65;;;1.55;;
8747;SDS011;4410;42.120;24.738;2022-07-22T13:37:53;7.82;;;2.88;;
8747;SDS011;4410;42.120;24.738;2022-07-22T13:40:21;1.17;;;1.17;;
8747;SDS011;4410;42.120;24.738;2022-07-22T13:42:58;1.50;;;1.40;;
8747;SDS011;4410;42.120;24.738;2022-07-22T13:45:26;1.63;;;1.30;;
8747;SDS011;4410;42.120;24.738;2022-07-22T13:47:53;3.72;;;1.83;;
8747;SDS011;4410;42.120;24.738;2022-07-22T13:50:23;2.10;;;2.00;;
8747;SDS011;4410;42.120;24.738;2022-07-22T13:53:02;0.85;;;0.85;;
8747;SDS011;4410;42.120;24.738;2022-07-22T13:55:31;1.13;;;1.13;;
8747;SDS011;4410;42.120;24.738;2022-07-22T13:58:03;1.60;;;1.50;;
8747;SDS011;4410;42.120;24.738;2022-07-22T14:03:38;1.50;;;1.48;;
8747;SDS011;4410;42.120;24.738;2022-07-22T14:06:15;2.50;;;1.92;;
8747;SDS011;4410;42.120;24.738;2022-07-22T14:09:01;1.83;;;1.73;;
8747;SDS011;4410;42.120;24.738;2022-07-22T14:11:29;2.08;;;1.95;;
8747;SDS011;4410;42.120;24.738;2022-07-22T14:13:57;1.02;;;1.02;;
8747;SDS011;4410;42.120;24.738;2022-07-22T14:16:25;2.70;;;1.25;;
8747;SDS011;4410;42.120;24.738;2022-07-22T14:19:05;2.15;;;1.95;;
8747;SDS011;4410;42.120;24.738;2022-07-22T14:21:41;1.08;;;1.08;;
8747;SDS011;4410;42.120;24.738;2022-07-22T14:24:09;1.10;;;1.00;;
8747;SDS011;4410;42.120;24.738;2022-07-22T14:26:40;1.02;;;1.02;;
8747;SDS011;4410;42.120;24.738;2022-07-22T14:29:11;1.33;;;1.23;;
8747;SDS011;4410;42.120;24.738;2022-07-22T14:42:00;0.70;;;0.70;;
8747;SDS011;4410;42.120;24.738;2022-07-22T14:47:16;0.98;;;0.98;;
8747;SDS011;4410;42.120;24.738;2022-07-22T14:52:32;1.48;;;1.02;;
8747;SDS011;4410;42.120;24.738;2022-07-22T14:55:02;1.45;;;0.88;;
8747;SDS011;4410;42.120;24.738;2022-07-22T14:57:35;1.58;;;1.48;;
8747;SDS011;4410;42.120;24.738;2022-07-22T15:03:23;1.95;;;1.85;;
8747;SDS011;4410;42.120;24.738;2022-07-22T15:05:51;1.55;;;1.45;;
8747;SDS011;4410;42.120;24.738;2022-07-22T15:08:18;1.17;;;1.17;;
8747;SDS011;4410;42.120;24.738;2022-07-22T15:13:43;1.25;;;1.15;;
8747;SDS011;4410;42.120;24.738;2022-07-22T15:16:22;2.53;;;1.25;;
8747;SDS011;4410;42.120;24.738;2022-07-22T15:18:50;1.27;;;1.23;;
8747;SDS011;4410;42.120;24.738;2022-07-22T15:21:17;1.95;;;1.83;;
8747;SDS011;4410;42.120;24.738;2022-07-22T15:23:44;7.57;;;3.47;;
8747;SDS011;4410;42.120;24.738;2022-07-22T15:26:21;1.45;;;1.35;;
8747;SDS011;4410;42.120;24.738;2022-07-22T15:28:47;0.98;;;0.98;;
8747;SDS011;4410;42.120;24.738;2022-07-22T15:31:16;0.57;;;0.57;;
8747;SDS011;4410;42.120;24.738;2022-07-22T15:33:47;0.57;;;0.57;;
8747;SDS011;4410;42.120;24.738;2022-07-22T15:36:19;1.58;;;1.48;;
8747;SDS011;4410;42.120;24.738;2022-07-22T15:38:46;0.65;;;0.65;;
8747;SDS011;4410;42.120;24.738;2022-07-22T15:41:16;3.88;;;2.00;;
8747;SDS011;4410;42.120;24.738;2022-07-22T15:43:48;0.32;;;0.32;;
8747;SDS011;4410;42.120;24.738;2022-07-22T15:46:19;1.25;;;1.25;;
8747;SDS011;4410;42.120;24.738;2022-07-22T15:52:03;0.80;;;0.80;;
8747;SDS011;4410;42.120;24.738;2022-07-22T15:54:36;1.27;;;1.17;;
8747;SDS011;4410;42.120;24.738;2022-07-22T16:00:11;0.13;;;0.13;;
8747;SDS011;4410;42.120;24.738;2022-07-22T16:02:59;2.63;;;2.40;;
8747;SDS011;4410;42.120;24.738;2022-07-22T16:05:27;1.77;;;1.67;;
8747;SDS011;4410;42.120;24.738;2022-07-22T16:08:09;2.05;;;1.95;;
8747;SDS011;4410;42.120;24.738;2022-07-22T16:13:53;2.03;;;1.38;;
8747;SDS011;4410;42.120;24.738;2022-07-22T16:32:56;2.05;;;1.80;;
8747;SDS011;4410;42.120;24.738;2022-07-22T16:35:27;1.20;;;1.17;;
8747;SDS011;4410;42.120;24.738;2022-07-22T16:38:05;2.22;;;1.88;;
8747;SDS011;4410;42.120;24.738;2022-07-22T16:40:38;2.22;;;1.75;;
8747;SDS011;4410;42.120;24.738;2022-07-22T16:43:13;0.85;;;0.85;;
8747;SDS011;4410;42.120;24.738;2022-07-22T16:45:55;2.38;;;2.17;;
8747;SDS011;4410;42.120;24.738;2022-07-22T16:48:43;0.95;;;0.95;;
8747;SDS011;4410;42.120;24.738;2022-07-22T16:51:20;1.63;;;1.52;;
8747;SDS011;4410;42.120;24.738;2022-07-22T16:53:52;0.52;;;0.52;;
8747;SDS011;4410;42.120;24.738;2022-07-22T17:09:43;1.05;;;0.95;;
8747;SDS011;4410;42.120;24.738;2022-07-22T17:12:17;0.10;;;0.10;;
8747;SDS011;4410;42.120;24.738;2022-07-22T17:14:57;2.53;;;2.33;;
8747;SDS011;4410;42.120;24.738;2022-07-22T17:17:40;2.15;;;2.05;;
8747;SDS011;4410;42.120;24.738;2022-07-22T17:26:19;1.27;;;1.17;;
8747;SDS011;4410;42.120;24.738;2022-07-22T17:28:59;2.80;;;1.85;;
8747;SDS011;4410;42.120;24.738;2022-07-22T17:31:41;1.55;;;1.45;;
8747;SDS011;4410;42.120;24.738;2022-07-22T17:34:15;0.43;;;0.43;;
8747;SDS011;4410;42.120;24.738;2022-07-22T17:40:20;1.73;;;1.63;;
8747;SDS011;4410;42.120;24.738;2022-07-22T17:46:27;5.80;;;2.17;;
8747;SDS011;4410;42.120;24.738;2022-07-22T17:48:57;1.70;;;1.60;;
8747;SDS011;4410;42.120;24.738;2022-07-22T17:51:46;2.40;;;1.83;;
8747;SDS011;4410;42.120;24.738;2022-07-22T17:54:18;1.08;;;1.08;;
8747;SDS011;4410;42.120;24.738;2022-07-22T17:56:46;1.77;;;1.67;;
8747;SDS011;4410;42.120;24.738;2022-07-22T17:59:13;0.00;;;0.00;;
8747;SDS011;4410;42.120;24.738;2022-07-22T18:01:46;1.08;;;1.02;;
8747;SDS011;4410;42.120;24.738;2022-07-22T18:04:13;0.00;;;0.00;;
8747;SDS011;4410;42.120;24.738;2022-07-22T18:06:40;0.05;;;0.05;;
8747;SDS011;4410;42.120;24.738;2022-07-22T18:09:07;0.00;;;0.00;;
8747;SDS011;4410;42.120;24.738;2022-07-22T18:11:36;0.10;;;0.10;;
8747;SDS011;4410;42.120;24.738;2022-07-22T18:14:05;0.00;;;0.00;;
8747;SDS011;4410;42.120;24.738;2022-07-22T18:16:32;0.22;;;0.22;;
8747;SDS011;4410;42.120;24.738;2022-07-22T18:19:01;0.00;;;0.00;;
8747;SDS011;4410;42.120;24.738;2022-07-22T18:21:29;0.70;;;0.45;;
8747;SDS011;4410;42.120;24.738;2022-07-22T18:23:59;0.00;;;0.00;;
8747;SDS011;4410;42.120;24.738;2022-07-22T18:26:29;0.73;;;0.73;;
8747;SDS011;4410;42.120;24.738;2022-07-22T18:28:59;0.00;;;0.00;;
8747;SDS011;4410;42.120;24.738;2022-07-22T18:31:28;0.00;;;0.00;;
8747;SDS011;4410;42.120;24.738;2022-07-22T18:33:59;0.00;;;0.00;;
8747;SDS011;4410;42.120;24.738;2022-07-22T18:36:29;0.35;;;0.35;;
8747;SDS011;4410;42.120;24.738;2022-07-22T18:38:59;0.00;;;0.00;;
8747;SDS011;4410;42.120;24.738;2022-07-22T18:41:30;0.75;;;0.75;;
8747;SDS011;4410;42.120;24.738;2022-07-22T18:44:02;0.00;;;0.00;;
8747;SDS011;4410;42.120;24.738;2022-07-22T18:46:31;0.00;;;0.00;;
8747;SDS011;4410;42.120;24.738;2022-07-22T18:49:03;0.00;;;0.00;;
8747;SDS011;4410;42.120;24.738;2022-07-22T18:51:31;0.00;;;0.00;;
8747;SDS011;4410;42.120;24.738;2022-07-22T18:54:02;0.00;;;0.00;;
8747;SDS011;4410;42.120;24.738;2022-07-22T18:56:34;0.00;;;0.00;;
8747;SDS011;4410;42.120;24.738;2022-07-22T18:59:03;0.00;;;0.00;;
8747;SDS011;4410;42.120;24.738;2022-07-22T19:01:37;0.00;;;0.00;;
8747;SDS011;4410;42.120;24.738;2022-07-22T19:04:06;0.00;;;0.00;;
8747;SDS011;4410;42.120;24.738;2022-07-22T19:06:34;0.00;;;0.00;;
8747;SDS011;4410;42.120;24.738;2022-07-22T19:09:05;0.00;;;0.00;;
8747;SDS011;4410;42.120;24.738;2022-07-22T19:11:35;0.00;;;0.00;;
8747;SDS011;4410;42.120;24.738;2022-07-22T19:14:04;0.00;;;0.00;;
8747;SDS011;4410;42.120;24.738;2022-07-22T19:16:34;0.00;;;0.00;;
8747;SDS011;4410;42.120;24.738;2022-07-22T19:19:08;0.00;;;0.00;;
8747;SDS011;4410;42.120;24.738;2022-07-22T19:21:36;0.17;;;0.17;;
8747;SDS011;4410;42.120;24.738;2022-07-22T19:24:07;0.00;;;0.00;;
8747;SDS011;4410;42.120;24.738;2022-07-22T19:26:35;0.00;;;0.00;;
8747;SDS011;4410;42.120;24.738;2022-07-22T19:29:05;0.00;;;0.00;;
8747;SDS011;4410;42.120;24.738;2022-07-22T19:31:35;0.43;;;0.43;;
8747;SDS011;4410;42.120;24.738;2022-07-22T19:34:04;0.00;;;0.00;;
8747;SDS011;4410;42.120;24.738;2022-07-22T19:36:36;0.00;;;0.00;;
8747;SDS011;4410;42.120;24.738;2022-07-22T19:39:07;0.00;;;0.00;;
8747;SDS011;4410;42.120;24.738;2022-07-22T19:41:38;0.00;;;0.00;;